Time;durP1;ratioP1;P1;durP2;ratioP2;P2;SDS_P1;SDS_P2;PMS_P1;PMS_P2;Temp;Humidity;BMP_temperature;BMP_pressure;BME280_temperature;BME280_humidity;BME280_pressure;Samples;Min_cycle;Max_cycle;Signal;HPM_P1;HPM_P2
2023/09/22 00:00:10;;;;;;;13.90;5.18;;;;;;;;;;5033886;28;20287;-47
2023/09/22 00:02:59;;;;;;;6.85;4.68;;;;;;;;;;5033313;28;20228;-47
2023/09/22 00:05:26;;;;;;;8.55;4.32;;;;;;;;;;5033795;28;20283;-47
2023/09/22 00:07:53;;;;;;;6.70;4.53;;;;;;;;;;5033326;28;20200;-46
2023/09/22 00:10:20;;;;;;;8.25;4.93;;;;;;;;;;5033380;28;20220;-47
2023/09/22 00:12:47;;;;;;;8.27;4.75;;;;;;;;;;5033285;28;20208;-47
2023/09/22 00:15:15;;;;;;;11.90;5.05;;;;;;;;;;5033205;28;20573;-46
2023/09/22 00:17:43;;;;;;;12.23;5.05;;;;;;;;;;5033463;28;20262;-47
2023/09/22 00:20:13;;;;;;;11.73;4.78;;;;;;;;;;5033140;28;20201;-46
2023/09/22 00:22:42;;;;;;;12.57;5.47;;;;;;;;;;5033258;28;20657;-48
2023/09/22 00:25:09;;;;;;;8.18;4.47;;;;;;;;;;5033218;28;20266;-50
2023/09/22 00:27:38;;;;;;;7.55;4.32;;;;;;;;;;5033136;28;20205;-46
2023/09/22 00:30:05;;;;;;;10.50;4.70;;;;;;;;;;5033053;28;20205;-47
2023/09/22 00:32:33;;;;;;;10.23;4.97;;;;;;;;;;5015798;28;20657;-48
2023/09/22 00:35:00;;;;;;;10.38;4.85;;;;;;;;;;5035670;28;20205;-49
2023/09/22 00:37:28;;;;;;;11.27;4.35;;;;;;;;;;5037236;28;20229;-47
2023/09/22 00:39:55;;;;;;;10.20;5.03;;;;;;;;;;5036255;28;20205;-47
2023/09/22 00:42:22;;;;;;;12.82;5.10;;;;;;;;;;5019479;28;20247;-46
2023/09/22 00:44:50;;;;;;;7.22;4.07;;;;;;;;;;5037225;28;20201;-48
2023/09/22 00:47:17;;;;;;;6.38;4.10;;;;;;;;;;5037332;28;20197;-47
2023/09/22 00:49:45;;;;;;;6.72;4.60;;;;;;;;;;5036916;28;20665;-47
2023/09/22 00:52:13;;;;;;;7.47;4.63;;;;;;;;;;5019657;28;20213;-46
2023/09/22 00:54:40;;;;;;;9.15;4.95;;;;;;;;;;5036655;28;20223;-46
2023/09/22 00:57:09;;;;;;;7.82;4.57;;;;;;;;;;5036510;28;20240;-47
2023/09/22 00:59:36;;;;;;;7.20;4.45;;;;;;;;;;5003123;28;20204;-46
2023/09/22 01:02:03;;;;;;;12.30;5.03;;;;;;;;;;5002897;28;20235;-47
2023/09/22 01:04:31;;;;;;;8.82;4.60;;;;;;;;;;5019081;28;20205;-47
2023/09/22 01:06:59;;;;;;;9.85;4.43;;;;;;;;;;5019053;28;20212;-47
2023/09/22 01:09:26;;;;;;;9.20;5.13;;;;;;;;;;5036644;28;20208;-46
2023/09/22 01:11:53;;;;;;;8.70;4.65;;;;;;;;;;5036731;28;20216;-46
2023/09/22 01:14:20;;;;;;;8.68;4.45;;;;;;;;;;5036655;28;20204;-46
2023/09/22 01:16:50;;;;;;;10.10;4.53;;;;;;;;;;5036327;28;20232;-48
2023/09/22 01:19:19;;;;;;;8.55;5.07;;;;;;;;;;5036409;28;20287;-46
2023/09/22 01:21:48;;;;;;;9.93;5.40;;;;;;;;;;5036786;28;20216;-48
2023/09/22 01:24:15;;;;;;;11.07;4.60;;;;;;;;;;5036381;28;20201;-51
2023/09/22 01:26:43;;;;;;;9.95;4.90;;;;;;;;;;5018758;28;20319;-48
2023/09/22 01:29:10;;;;;;;10.15;5.30;;;;;;;;;;5019053;28;20201;-47
2023/09/22 01:31:38;;;;;;;9.13;5.22;;;;;;;;;;5036162;28;20211;-48
2023/09/22 01:34:06;;;;;;;8.25;4.50;;;;;;;;;;5037419;28;20204;-47
2023/09/22 01:36:33;;;;;;;8.30;4.75;;;;;;;;;;5034910;28;20275;-47
2023/09/22 01:39:01;;;;;;;10.30;5.13;;;;;;;;;;5016865;28;20205;-48
2023/09/22 01:41:29;;;;;;;11.75;4.93;;;;;;;;;;5016817;28;20212;-51
2023/09/22 01:43:56;;;;;;;9.40;4.85;;;;;;;;;;5035637;28;20240;-49
2023/09/22 01:46:23;;;;;;;9.43;4.80;;;;;;;;;;5034875;28;20216;-48
2023/09/22 01:48:51;;;;;;;11.07;4.55;;;;;;;;;;5034542;28;20607;-47
2023/09/22 01:51:18;;;;;;;9.38;5.55;;;;;;;;;;5053663;28;20562;-51
2023/09/22 01:53:45;;;;;;;11.15;5.38;;;;;;;;;;5035817;28;20259;-46
2023/09/22 01:56:13;;;;;;;9.30;5.38;;;;;;;;;;5035336;28;20224;-46
2023/09/22 01:58:40;;;;;;;9.20;4.47;;;;;;;;;;5021748;28;20643;-46
2023/09/22 02:01:07;;;;;;;10.32;4.50;;;;;;;;;;5055615;28;20201;-49
2023/09/22 02:03:34;;;;;;;10.98;5.30;;;;;;;;;;5037932;28;20196;-48
2023/09/22 02:06:04;;;;;;;9.90;5.03;;;;;;;;;;5055608;28;20329;-48
2023/09/22 02:08:32;;;;;;;8.77;4.68;;;;;;;;;;5055688;28;20601;-46
2023/09/22 02:10:59;;;;;;;7.93;5.15;;;;;;;;;;5037483;28;20200;-46
2023/09/22 02:13:26;;;;;;;8.90;4.75;;;;;;;;;;5037508;28;20200;-48
2023/09/22 02:15:54;;;;;;;10.65;5.00;;;;;;;;;;5055159;28;20661;-46
2023/09/22 02:18:23;;;;;;;7.68;4.95;;;;;;;;;;5036314;28;20209;-47
2023/09/22 02:20:52;;;;;;;9.27;5.15;;;;;;;;;;5035460;28;20688;-47
2023/09/22 02:23:21;;;;;;;8.95;4.70;;;;;;;;;;5035307;28;20271;-48
2023/09/22 02:25:49;;;;;;;8.65;5.20;;;;;;;;;;5035336;28;20212;-46
2023/09/22 02:28:16;;;;;;;8.70;5.38;;;;;;;;;;5017535;28;20283;-47
2023/09/22 02:30:43;;;;;;;6.88;4.43;;;;;;;;;;5034953;28;20200;-46
2023/09/22 02:33:10;;;;;;;8.30;4.75;;;;;;;;;;5034906;28;20666;-46
2023/09/22 02:35:40;;;;;;;6.50;4.50;;;;;;;;;;5035209;28;20204;-46
2023/09/22 02:38:07;;;;;;;8.48;4.85;;;;;;;;;;5034965;28;20317;-48
2023/09/22 02:40:34;;;;;;;9.40;4.70;;;;;;;;;;5034699;28;20208;-46
2023/09/22 02:43:03;;;;;;;10.07;4.97;;;;;;;;;;5016961;28;20229;-48
2023/09/22 02:45:30;;;;;;;16.23;5.28;;;;;;;;;;5017035;28;20276;-46
2023/09/22 02:47:58;;;;;;;9.30;5.00;;;;;;;;;;5033460;28;20634;-47
2023/09/22 02:50:25;;;;;;;8.68;5.35;;;;;;;;;;5034847;28;20542;-48
2023/09/22 02:52:52;;;;;;;8.68;5.22;;;;;;;;;;5040658;28;20204;-47
2023/09/22 02:55:20;;;;;;;10.63;4.75;;;;;;;;;;5054395;28;20207;-48
2023/09/22 02:57:47;;;;;;;8.77;5.07;;;;;;;;;;5036222;28;20224;-46
2023/09/22 03:00:18;;;;;;;8.10;5.07;;;;;;;;;;5054628;28;20211;-47
2023/09/22 03:02:49;;;;;;;10.15;5.50;;;;;;;;;;5054320;28;20204;-48
2023/09/22 03:05:18;;;;;;;9.85;5.43;;;;;;;;;;5054699;28;20185;-47
2023/09/22 03:07:50;;;;;;;12.23;5.40;;;;;;;;;;5036715;28;20207;-49
2023/09/22 03:10:18;;;;;;;8.23;4.95;;;;;;;;;;5031371;28;20209;-46
2023/09/22 03:12:50;;;;;;;9.57;5.28;;;;;;;;;;5033823;28;20246;-48
2023/09/22 03:15:17;;;;;;;10.40;5.25;;;;;;;;;;5048299;28;20214;-49
2023/09/22 03:17:44;;;;;;;11.48;5.85;;;;;;;;;;5034262;28;20224;-47
2023/09/22 03:20:12;;;;;;;12.32;5.75;;;;;;;;;;5016777;28;20205;-47
2023/09/22 03:22:41;;;;;;;10.43;6.07;;;;;;;;;;5016736;28;20212;-46
2023/09/22 03:25:09;;;;;;;14.68;5.75;;;;;;;;;;5016225;28;20212;-46
2023/09/22 03:27:38;;;;;;;9.60;5.97;;;;;;;;;;5032884;28;20291;-46
2023/09/22 03:30:08;;;;;;;11.10;5.53;;;;;;;;;;5016616;28;20200;-46
2023/09/22 03:32:39;;;;;;;10.40;6.53;;;;;;;;;;5016470;28;20204;-47
2023/09/22 03:35:09;;;;;;;8.57;5.95;;;;;;;;;;5016288;28;20213;-46
2023/09/22 03:37:37;;;;;;;11.00;5.53;;;;;;;;;;5015994;28;20266;-47
2023/09/22 03:40:13;;;;;;;10.77;6.22;;;;;;;;;;5016223;28;20604;-46
2023/09/22 03:42:43;;;;;;;11.80;5.85;;;;;;;;;;5032135;28;20306;-46
2023/09/22 03:45:12;;;;;;;11.40;5.97;;;;;;;;;;5034201;28;20193;-47
2023/09/22 03:47:40;;;;;;;14.18;6.18;;;;;;;;;;5049161;28;20242;-46
2023/09/22 03:50:09;;;;;;;9.82;6.18;;;;;;;;;;5032267;28;20192;-51
2023/09/22 03:52:39;;;;;;;10.50;5.85;;;;;;;;;;5035769;28;20295;-47
2023/09/22 03:55:08;;;;;;;11.50;6.90;;;;;;;;;;5035722;28;20208;-49
2023/09/22 03:57:35;;;;;;;10.13;5.90;;;;;;;;;;5052984;28;20719;-48
2023/09/22 04:00:07;;;;;;;11.35;6.78;;;;;;;;;;5048871;28;20200;-46
2023/09/22 04:02:39;;;;;;;10.65;6.38;;;;;;;;;;5039001;28;20224;-46
2023/09/22 04:05:08;;;;;;;11.18;7.13;;;;;;;;;;5045620;28;20224;-48
2023/09/22 04:07:35;;;;;;;9.60;6.50;;;;;;;;;;5048274;28;20314;-46
2023/09/22 04:10:03;;;;;;;12.40;6.85;;;;;;;;;;5038625;28;20227;-46
2023/09/22 04:12:30;;;;;;;10.55;6.60;;;;;;;;;;5034724;28;20220;-47
2023/09/22 04:14:59;;;;;;;10.18;6.57;;;;;;;;;;5051866;28;20223;-47
2023/09/22 04:17:27;;;;;;;11.45;6.32;;;;;;;;;;5032998;28;20323;-46
2023/09/22 04:19:55;;;;;;;11.00;5.93;;;;;;;;;;5032180;28;20231;-45
2023/09/22 04:22:22;;;;;;;12.85;6.60;;;;;;;;;;5032290;28;20705;-47
2023/09/22 04:24:59;;;;;;;10.05;6.88;;;;;;;;;;5031978;28;20224;-50
2023/09/22 04:27:35;;;;;;;10.63;6.68;;;;;;;;;;5038674;28;20223;-45
2023/09/22 04:30:07;;;;;;;11.32;6.35;;;;;;;;;;5051719;28;20757;-46
2023/09/22 04:32:35;;;;;;;10.88;6.65;;;;;;;;;;5051962;28;20231;-47
2023/09/22 04:35:06;;;;;;;13.32;6.22;;;;;;;;;;5037920;28;20228;-46
2023/09/22 04:37:33;;;;;;;12.02;5.53;;;;;;;;;;5039483;28;20785;-46
2023/09/22 04:40:03;;;;;;;10.10;6.07;;;;;;;;;;5046920;28;20224;-46
2023/09/22 04:42:30;;;;;;;14.18;7.63;;;;;;;;;;5031938;28;20312;-46
2023/09/22 04:44:59;;;;;;;9.68;6.13;;;;;;;;;;5030772;28;20229;-46
2023/09/22 04:47:26;;;;;;;11.68;7.05;;;;;;;;;;5038044;28;20226;-46
2023/09/22 04:49:54;;;;;;;15.45;7.03;;;;;;;;;;5051504;28;20623;-46
2023/09/22 04:52:21;;;;;;;9.45;6.47;;;;;;;;;;5052062;28;20235;-46
2023/09/22 04:54:48;;;;;;;11.43;6.75;;;;;;;;;;5047890;28;20270;-46
2023/09/22 04:57:15;;;;;;;11.30;6.65;;;;;;;;;;5052173;28;20236;-47
2023/09/22 04:59:44;;;;;;;12.00;6.93;;;;;;;;;;5052313;28;20220;-48
2023/09/22 05:02:11;;;;;;;11.15;6.45;;;;;;;;;;5051379;28;20616;-47
2023/09/22 05:04:39;;;;;;;11.35;6.30;;;;;;;;;;5051818;28;20704;-46
2023/09/22 05:07:06;;;;;;;9.88;6.32;;;;;;;;;;5051853;28;20220;-47
2023/09/22 05:09:34;;;;;;;14.77;6.53;;;;;;;;;;5051784;28;20224;-47
2023/09/22 05:12:01;;;;;;;11.20;6.53;;;;;;;;;;5051866;28;20223;-47
2023/09/22 05:14:29;;;;;;;9.45;6.43;;;;;;;;;;5051907;28;20232;-47
2023/09/22 05:16:56;;;;;;;11.82;6.80;;;;;;;;;;5052736;28;20204;-46
2023/09/22 05:19:23;;;;;;;11.05;6.72;;;;;;;;;;5051669;28;20196;-47
2023/09/22 05:21:51;;;;;;;11.50;6.32;;;;;;;;;;5054850;28;20342;-47
2023/09/22 05:24:19;;;;;;;12.02;6.55;;;;;;;;;;5055133;28;20204;-46
2023/09/22 05:26:46;;;;;;;13.77;7.03;;;;;;;;;;5056269;28;20200;-46
2023/09/22 05:29:13;;;;;;;9.80;6.25;;;;;;;;;;5056071;28;20208;-46
2023/09/22 05:31:40;;;;;;;8.90;5.65;;;;;;;;;;5056289;28;20273;-48
2023/09/22 05:34:08;;;;;;;14.75;6.68;;;;;;;;;;5056022;28;20270;-48
2023/09/22 05:36:35;;;;;;;13.50;6.80;;;;;;;;;;5055893;28;20689;-48
2023/09/22 05:39:08;;;;;;;10.65;6.60;;;;;;;;;;5056085;28;20255;-47
2023/09/22 05:41:36;;;;;;;10.68;6.22;;;;;;;;;;5056037;28;20200;-47
2023/09/22 05:44:04;;;;;;;11.80;6.63;;;;;;;;;;5055604;28;20266;-46
2023/09/22 05:46:31;;;;;;;12.45;6.43;;;;;;;;;;5055695;28;20287;-47
2023/09/22 05:48:58;;;;;;;12.02;6.07;;;;;;;;;;5055955;28;20208;-46
2023/09/22 05:51:26;;;;;;;10.27;5.90;;;;;;;;;;5055956;28;20573;-47
2023/09/22 05:53:53;;;;;;;14.95;6.90;;;;;;;;;;5055632;28;20238;-47
2023/09/22 05:56:20;;;;;;;7.85;5.70;;;;;;;;;;5055582;28;20215;-46
2023/09/22 05:58:48;;;;;;;8.77;5.70;;;;;;;;;;5055717;28;20281;-46
2023/09/22 06:01:14;;;;;;;14.13;6.43;;;;;;;;;;5055426;28;20204;-47
2023/09/22 06:03:42;;;;;;;10.02;6.45;;;;;;;;;;5055644;28;20258;-46
2023/09/22 06:06:11;;;;;;;10.82;6.05;;;;;;;;;;5038004;28;20204;-47
2023/09/22 06:08:41;;;;;;;10.75;6.25;;;;;;;;;;5055233;28;20661;-47
2023/09/22 06:11:10;;;;;;;11.65;5.68;;;;;;;;;;5055748;28;20231;-47
2023/09/22 06:13:38;;;;;;;8.30;5.57;;;;;;;;;;5055437;28;20203;-47
2023/09/22 06:16:06;;;;;;;11.05;5.88;;;;;;;;;;5020337;28;20641;-46
2023/09/22 06:18:34;;;;;;;10.55;5.78;;;;;;;;;;5055023;28;20282;-47
2023/09/22 06:21:02;;;;;;;8.07;5.20;;;;;;;;;;5055140;28;20284;-50
2023/09/22 06:23:31;;;;;;;8.88;5.38;;;;;;;;;;5055341;28;20209;-48
2023/09/22 06:26:02;;;;;;;11.10;5.35;;;;;;;;;;5054965;28;20648;-47
2023/09/22 06:28:30;;;;;;;9.38;5.43;;;;;;;;;;5055011;28;20215;-47
2023/09/22 06:31:01;;;;;;;11.30;5.38;;;;;;;;;;5055133;28;20282;-47
2023/09/22 06:33:30;;;;;;;10.80;5.50;;;;;;;;;;5054492;28;20227;-47
2023/09/22 06:35:59;;;;;;;8.27;4.70;;;;;;;;;;5055140;28;20204;-47
2023/09/22 06:38:27;;;;;;;8.40;5.07;;;;;;;;;;5054793;28;20231;-47
2023/09/22 06:40:57;;;;;;;7.68;4.53;;;;;;;;;;5054734;28;20207;-47
2023/09/22 06:43:26;;;;;;;6.22;4.70;;;;;;;;;;5054609;28;20235;-47
2023/09/22 06:45:56;;;;;;;9.45;5.18;;;;;;;;;;5054552;28;20204;-47
2023/09/22 06:48:26;;;;;;;6.93;4.38;;;;;;;;;;5054598;28;20212;-48
2023/09/22 06:50:57;;;;;;;8.95;5.13;;;;;;;;;;5054592;28;20261;-47
2023/09/22 06:53:26;;;;;;;8.00;4.68;;;;;;;;;;5054756;28;20586;-47
2023/09/22 06:56:03;;;;;;;7.25;4.75;;;;;;;;;;5054672;28;20207;-47
2023/09/22 06:58:30;;;;;;;8.20;4.70;;;;;;;;;;5054674;28;20227;-46
2023/09/22 07:01:14;;;;;;;6.15;4.60;;;;;;;;;;5054815;28;20211;-48
2023/09/22 07:03:44;;;;;;;9.00;4.40;;;;;;;;;;5054442;28;20200;-46
2023/09/22 07:06:14;;;;;;;8.52;4.18;;;;;;;;;;5054548;28;20207;-47
2023/09/22 07:08:44;;;;;;;8.80;4.40;;;;;;;;;;5054241;28;20219;-47
2023/09/22 07:11:13;;;;;;;8.07;5.15;;;;;;;;;;5054654;28;20192;-46
2023/09/22 07:13:41;;;;;;;6.97;4.10;;;;;;;;;;5054526;28;20275;-46
2023/09/22 07:16:09;;;;;;;7.70;4.55;;;;;;;;;;5036438;28;20203;-47
2023/09/22 07:18:37;;;;;;;8.20;4.38;;;;;;;;;;5053931;28;20289;-48
2023/09/22 07:21:11;;;;;;;5.22;3.83;;;;;;;;;;5054113;28;20215;-46
2023/09/22 07:23:38;;;;;;;8.18;3.75;;;;;;;;;;5053908;28;20730;-47
2023/09/22 07:26:11;;;;;;;7.35;4.00;;;;;;;;;;5054152;28;20200;-46
2023/09/22 07:28:39;;;;;;;6.90;3.70;;;;;;;;;;5054134;28;20204;-47
2023/09/22 07:31:13;;;;;;;5.45;4.03;;;;;;;;;;5036341;28;20204;-49
2023/09/22 07:33:43;;;;;;;6.82;3.78;;;;;;;;;;5054169;28;20203;-46
2023/09/22 07:36:12;;;;;;;6.15;3.85;;;;;;;;;;5053701;28;20537;-46
2023/09/22 07:38:39;;;;;;;6.95;3.58;;;;;;;;;;5053659;28;20215;-46
2023/09/22 07:41:07;;;;;;;8.15;3.70;;;;;;;;;;5053551;28;20261;-47
2023/09/22 07:43:35;;;;;;;6.55;4.03;;;;;;;;;;5053746;28;20244;-47
2023/09/22 07:46:06;;;;;;;6.88;3.67;;;;;;;;;;5053612;28;20208;-48
2023/09/22 07:48:35;;;;;;;6.88;3.47;;;;;;;;;;5053666;28;20585;-47
2023/09/22 07:51:03;;;;;;;10.13;3.80;;;;;;;;;;5053427;28;20211;-50
2023/09/22 07:53:31;;;;;;;7.60;3.67;;;;;;;;;;5053619;28;20208;-47
2023/09/22 07:56:01;;;;;;;8.00;3.40;;;;;;;;;;5053255;28;20767;-48
2023/09/22 07:58:29;;;;;;;8.00;3.17;;;;;;;;;;5053725;28;20215;-48
2023/09/22 08:00:59;;;;;;;7.00;3.30;;;;;;;;;;5053512;28;20208;-47
2023/09/22 08:03:27;;;;;;;6.60;3.22;;;;;;;;;;5053415;28;20286;-47
2023/09/22 08:05:55;;;;;;;8.98;4.05;;;;;;;;;;5053231;28;20549;-47
2023/09/22 08:08:22;;;;;;;7.65;3.63;;;;;;;;;;5053231;28;20208;-47
2023/09/22 08:10:49;;;;;;;4.88;3.08;;;;;;;;;;5053484;28;20208;-47
2023/09/22 08:13:16;;;;;;;10.13;3.80;;;;;;;;;;5053540;28;20204;-47
2023/09/22 08:15:44;;;;;;;4.60;3.25;;;;;;;;;;5053308;28;20200;-48
2023/09/22 08:18:11;;;;;;;5.45;3.63;;;;;;;;;;5053339;28;20226;-48
2023/09/22 08:20:39;;;;;;;5.95;3.22;;;;;;;;;;5053265;28;20211;-49
2023/09/22 08:23:06;;;;;;;8.32;3.60;;;;;;;;;;5018947;28;20206;-47
2023/09/22 08:25:34;;;;;;;6.07;3.05;;;;;;;;;;5053336;28;20208;-48
2023/09/22 08:28:02;;;;;;;5.78;3.08;;;;;;;;;;5053057;28;20671;-47
2023/09/22 08:30:30;;;;;;;6.40;3.63;;;;;;;;;;5053358;28;20231;-47
2023/09/22 08:32:58;;;;;;;9.30;3.58;;;;;;;;;;5053412;28;20214;-50
2023/09/22 08:35:26;;;;;;;5.63;3.35;;;;;;;;;;5052969;28;20203;-48
2023/09/22 08:37:54;;;;;;;5.78;3.72;;;;;;;;;;5052855;28;20565;-46
2023/09/22 08:40:21;;;;;;;8.68;3.40;;;;;;;;;;5052895;28;20204;-47
2023/09/22 08:42:51;;;;;;;6.68;4.03;;;;;;;;;;5053245;28;20228;-46
2023/09/22 08:45:20;;;;;;;7.03;4.00;;;;;;;;;;5052982;28;20203;-47
2023/09/22 08:47:48;;;;;;;5.55;3.30;;;;;;;;;;5052956;28;20208;-49
2023/09/22 08:50:17;;;;;;;5.65;3.55;;;;;;;;;;5053299;28;20196;-48
2023/09/22 08:52:46;;;;;;;7.68;4.00;;;;;;;;;;5053147;28;20235;-47
2023/09/22 08:55:14;;;;;;;7.07;4.10;;;;;;;;;;5053406;28;20207;-47
2023/09/22 08:57:44;;;;;;;7.38;4.10;;;;;;;;;;5056923;28;20552;-47
2023/09/22 09:00:18;;;;;;;8.05;3.78;;;;;;;;;;5056900;28;20208;-47
2023/09/22 09:02:50;;;;;;;7.97;3.90;;;;;;;;;;5056485;28;20235;-47
2023/09/22 09:05:20;;;;;;;6.53;3.47;;;;;;;;;;5057155;28;20211;-49
2023/09/22 09:07:49;;;;;;;8.07;4.10;;;;;;;;;;5056715;28;20203;-47
2023/09/22 09:10:32;;;;;;;6.15;3.55;;;;;;;;;;5056898;28;20200;-48
2023/09/22 09:13:02;;;;;;;7.47;4.30;;;;;;;;;;5056719;28;20192;-46
2023/09/22 09:15:41;;;;;;;6.05;3.97;;;;;;;;;;5056721;28;20230;-47
2023/09/22 09:18:16;;;;;;;9.25;4.57;;;;;;;;;;5056633;28;20228;-50
2023/09/22 09:20:45;;;;;;;7.47;4.43;;;;;;;;;;5056271;28;20203;-47
2023/09/22 09:23:17;;;;;;;8.88;4.53;;;;;;;;;;5056643;28;20196;-50
2023/09/22 09:25:44;;;;;;;6.93;3.65;;;;;;;;;;5056508;28;20196;-50
2023/09/22 09:28:12;;;;;;;12.82;4.63;;;;;;;;;;5056301;28;20253;-48
2023/09/22 09:30:53;;;;;;;8.50;4.40;;;;;;;;;;5056125;28;20212;-48
2023/09/22 09:33:21;;;;;;;8.07;4.45;;;;;;;;;;5056400;28;20215;-50
2023/09/22 09:35:50;;;;;;;5.60;4.00;;;;;;;;;;5056019;28;20236;-51
2023/09/22 09:38:20;;;;;;;9.15;4.72;;;;;;;;;;5056326;28;20219;-48
2023/09/22 09:40:50;;;;;;;11.95;4.82;;;;;;;;;;5056262;28;20204;-48
2023/09/22 09:43:17;;;;;;;7.03;4.35;;;;;;;;;;5056122;28;20239;-49
2023/09/22 09:45:46;;;;;;;10.07;5.30;;;;;;;;;;5055580;28;20575;-48
2023/09/22 09:48:18;;;;;;;13.23;4.63;;;;;;;;;;5038189;28;20200;-51
2023/09/22 09:50:50;;;;;;;9.43;4.97;;;;;;;;;;5055995;28;20196;-50
2023/09/22 09:53:23;;;;;;;7.93;4.32;;;;;;;;;;5055682;28;20204;-48
2023/09/22 09:55:56;;;;;;;12.35;4.43;;;;;;;;;;5055935;28;20205;-50
2023/09/22 09:58:26;;;;;;;13.32;4.80;;;;;;;;;;5055531;28;20265;-49
2023/09/22 10:00:55;;;;;;;8.30;4.60;;;;;;;;;;5055445;28;20203;-51
2023/09/22 10:03:24;;;;;;;9.38;4.43;;;;;;;;;;5055823;28;20253;-47
2023/09/22 10:05:52;;;;;;;6.57;4.97;;;;;;;;;;5055838;28;20192;-48
2023/09/22 10:08:22;;;;;;;13.27;4.72;;;;;;;;;;5054255;28;20608;-49
2023/09/22 10:10:52;;;;;;;8.25;4.78;;;;;;;;;;5055362;28;20185;-49
2023/09/22 10:13:19;;;;;;;7.65;4.57;;;;;;;;;;5055271;28;20199;-50
2023/09/22 10:15:55;;;;;;;8.38;4.63;;;;;;;;;;5055479;28;20200;-50
2023/09/22 10:18:46;;;;;;;8.55;4.63;;;;;;;;;;5055571;28;20207;-50
2023/09/22 10:21:49;;;;;;;10.70;5.32;;;;;;;;;;5055234;28;20204;-48
2023/09/22 10:24:23;;;;;;;7.22;4.68;;;;;;;;;;5055179;28;20207;-48
2023/09/22 10:26:54;;;;;;;8.57;5.15;;;;;;;;;;5038592;28;20246;-47
2023/09/22 10:29:36;;;;;;;8.05;5.22;;;;;;;;;;5055346;28;20204;-50
2023/09/22 10:32:21;;;;;;;12.10;4.93;;;;;;;;;;5054938;28;20200;-50
2023/09/22 10:35:10;;;;;;;9.20;5.10;;;;;;;;;;5054880;28;20560;-50
2023/09/22 10:37:56;;;;;;;9.15;5.20;;;;;;;;;;5054901;28;20652;-48
2023/09/22 10:40:23;;;;;;;9.60;5.22;;;;;;;;;;5055037;28;20220;-48
2023/09/22 10:42:51;;;;;;;9.60;5.28;;;;;;;;;;5054786;28;20228;-48
2023/09/22 10:45:21;;;;;;;8.48;5.10;;;;;;;;;;5054524;28;20641;-49
2023/09/22 10:47:51;;;;;;;13.48;5.47;;;;;;;;;;5054972;28;20192;-48
2023/09/22 10:50:21;;;;;;;9.25;5.82;;;;;;;;;;5054617;28;20680;-50
2023/09/22 10:53:00;;;;;;;9.95;5.35;;;;;;;;;;5054760;28;20291;-49
2023/09/22 10:55:34;;;;;;;11.35;5.40;;;;;;;;;;5054883;28;20195;-49
2023/09/22 10:58:06;;;;;;;10.50;4.90;;;;;;;;;;5054487;28;20196;-48
2023/09/22 11:00:43;;;;;;;11.48;4.55;;;;;;;;;;5054777;28;20250;-48
2023/09/22 11:03:14;;;;;;;12.43;5.13;;;;;;;;;;5054523;28;20568;-48
2023/09/22 11:05:43;;;;;;;10.30;4.60;;;;;;;;;;5054332;28;20230;-49
2023/09/22 11:08:15;;;;;;;9.32;4.82;;;;;;;;;;5054470;28;20209;-49
2023/09/22 11:10:47;;;;;;;8.73;4.90;;;;;;;;;;5054220;28;20759;-47
2023/09/22 11:13:15;;;;;;;8.85;4.35;;;;;;;;;;5054606;28;20246;-52
2023/09/22 11:15:47;;;;;;;8.88;3.72;;;;;;;;;;5054615;28;20200;-49
2023/09/22 11:18:25;;;;;;;9.25;3.97;;;;;;;;;;5054287;28;20201;-47
2023/09/22 11:21:08;;;;;;;6.65;3.83;;;;;;;;;;5054052;28;20204;-52
2023/09/22 11:23:36;;;;;;;11.10;4.22;;;;;;;;;;5037362;28;20212;-48
2023/09/22 11:26:08;;;;;;;8.43;4.40;;;;;;;;;;5036468;28;20231;-49
2023/09/22 11:28:39;;;;;;;8.35;3.75;;;;;;;;;;5053838;28;20697;-49
2023/09/22 11:31:14;;;;;;;8.73;4.20;;;;;;;;;;5053852;28;20287;-50
2023/09/22 11:33:44;;;;;;;8.23;3.90;;;;;;;;;;5037550;28;20224;-48
2023/09/22 11:36:12;;;;;;;7.60;3.67;;;;;;;;;;5040787;28;20685;-49
2023/09/22 11:38:40;;;;;;;7.05;3.80;;;;;;;;;;5052506;28;20227;-47
2023/09/22 11:41:16;;;;;;;5.88;3.70;;;;;;;;;;5053037;28;20224;-48
2023/09/22 11:43:48;;;;;;;6.05;3.95;;;;;;;;;;5052599;28;20597;-48
2023/09/22 11:46:26;;;;;;;10.55;5.50;;;;;;;;;;5053219;28;20749;-47
2023/09/22 11:48:57;;;;;;;23.17;15.40;;;;;;;;;;5052605;28;20231;-49
2023/09/22 11:51:48;;;;;;;18.77;6.47;;;;;;;;;;5052950;28;20227;-47
2023/09/22 11:54:24;;;;;;;11.63;5.68;;;;;;;;;;5052873;28;20251;-50
2023/09/22 11:56:58;;;;;;;9.07;5.00;;;;;;;;;;5053036;28;20279;-47
2023/09/22 11:59:27;;;;;;;13.25;4.30;;;;;;;;;;5052351;28;20236;-47
2023/09/22 12:01:55;;;;;;;9.43;4.40;;;;;;;;;;5052429;28;20508;-48
2023/09/22 12:04:23;;;;;;;10.73;4.50;;;;;;;;;;5052524;28;20223;-48
2023/09/22 12:06:51;;;;;;;9.80;4.88;;;;;;;;;;5053137;28;20220;-50
2023/09/22 12:09:19;;;;;;;12.48;5.15;;;;;;;;;;5052818;28;20712;-49
2023/09/22 12:11:47;;;;;;;10.13;5.15;;;;;;;;;;5052716;28;20228;-50
2023/09/22 12:14:14;;;;;;;13.15;5.18;;;;;;;;;;5052654;28;20220;-47
2023/09/22 12:16:42;;;;;;;11.80;4.78;;;;;;;;;;5052402;28;20220;-48
2023/09/22 12:19:09;;;;;;;16.85;7.32;;;;;;;;;;5036673;28;20232;-51
2023/09/22 12:21:36;;;;;;;7.30;4.55;;;;;;;;;;5032605;28;20228;-48
2023/09/22 12:24:04;;;;;;;19.40;11.77;;;;;;;;;;5032811;28;20232;-48
2023/09/22 12:26:31;;;;;;;11.40;6.00;;;;;;;;;;5032417;28;20220;-47
2023/09/22 12:29:03;;;;;;;8.18;5.40;;;;;;;;;;5032559;28;20693;-48
2023/09/22 12:31:31;;;;;;;9.10;5.53;;;;;;;;;;5035385;28;20248;-50
2023/09/22 12:34:00;;;;;;;10.18;5.20;;;;;;;;;;5036292;28;20716;-48
2023/09/22 12:36:27;;;;;;;7.03;3.83;;;;;;;;;;5037088;28;20233;-49
2023/09/22 12:38:55;;;;;;;11.25;5.72;;;;;;;;;;5037200;28;20209;-48
2023/09/22 12:41:22;;;;;;;7.65;5.10;;;;;;;;;;5037083;28;20272;-47
2023/09/22 12:43:49;;;;;;;8.95;4.78;;;;;;;;;;5037016;28;20705;-47
2023/09/22 12:46:16;;;;;;;10.30;4.72;;;;;;;;;;5037322;28;20205;-49
2023/09/22 12:48:43;;;;;;;11.15;4.85;;;;;;;;;;5042070;28;20228;-48
2023/09/22 12:51:11;;;;;;;10.52;4.28;;;;;;;;;;5055842;28;20692;-49
2023/09/22 12:53:39;;;;;;;7.45;4.75;;;;;;;;;;5056299;28;20223;-53
2023/09/22 12:56:07;;;;;;;8.00;4.65;;;;;;;;;;5048681;28;20220;-49
2023/09/22 12:58:34;;;;;;;10.82;4.88;;;;;;;;;;5050637;28;20231;-47
2023/09/22 13:01:05;;;;;;;10.65;4.75;;;;;;;;;;5055876;28;20243;-47
2023/09/22 13:03:33;;;;;;;7.40;4.38;;;;;;;;;;5055691;28;20238;-48
2023/09/22 13:06:08;;;;;;;9.07;4.45;;;;;;;;;;5055814;28;20270;-49
2023/09/22 13:08:37;;;;;;;7.45;4.45;;;;;;;;;;5055927;28;20220;-49
2023/09/22 13:11:05;;;;;;;12.75;5.20;;;;;;;;;;5055884;28;20623;-48
2023/09/22 13:13:32;;;;;;;6.90;3.90;;;;;;;;;;5053744;28;20212;-48
2023/09/22 13:15:59;;;;;;;6.65;4.10;;;;;;;;;;5054778;28;20696;-48
2023/09/22 13:18:27;;;;;;;6.75;3.97;;;;;;;;;;5054548;28;20215;-48
2023/09/22 13:20:54;;;;;;;8.18;4.55;;;;;;;;;;5055114;28;20227;-48
2023/09/22 13:23:22;;;;;;;8.82;4.93;;;;;;;;;;5054959;28;20265;-47
2023/09/22 13:25:50;;;;;;;11.30;4.10;;;;;;;;;;5055018;28;20212;-49
2023/09/22 13:28:18;;;;;;;8.60;4.05;;;;;;;;;;5055493;28;20216;-47
2023/09/22 13:30:52;;;;;;;10.20;4.35;;;;;;;;;;5055252;28;20219;-46
2023/09/22 13:33:21;;;;;;;6.35;4.05;;;;;;;;;;5049960;28;20227;-47
2023/09/22 13:35:52;;;;;;;10.65;4.50;;;;;;;;;;5035244;28;20278;-49
2023/09/22 13:38:19;;;;;;;11.60;3.83;;;;;;;;;;5034405;28;20229;-47
2023/09/22 13:40:47;;;;;;;8.27;4.28;;;;;;;;;;5034054;28;20331;-48
2023/09/22 13:43:15;;;;;;;12.18;4.15;;;;;;;;;;5047986;28;20246;-47
2023/09/22 13:45:42;;;;;;;10.43;3.95;;;;;;;;;;5055013;28;20223;-46
2023/09/22 13:48:10;;;;;;;11.63;4.55;;;;;;;;;;5049512;28;20700;-47
2023/09/22 13:50:38;;;;;;;9.45;4.85;;;;;;;;;;5040305;28;20255;-47
2023/09/22 13:53:09;;;;;;;8.68;4.18;;;;;;;;;;5047896;28;20233;-46
2023/09/22 13:55:38;;;;;;;15.95;4.75;;;;;;;;;;5034247;28;20235;-49
2023/09/22 13:58:06;;;;;;;12.52;4.90;;;;;;;;;;5034090;28;20228;-47
2023/09/22 14:00:34;;;;;;;7.25;4.82;;;;;;;;;;5034306;28;20236;-47
2023/09/22 14:03:02;;;;;;;8.10;4.18;;;;;;;;;;5036093;28;20283;-49
2023/09/22 14:05:31;;;;;;;10.32;4.53;;;;;;;;;;5054496;28;20227;-50
2023/09/22 14:07:59;;;;;;;6.30;4.18;;;;;;;;;;5054186;28;20232;-50
2023/09/22 14:10:27;;;;;;;9.95;3.90;;;;;;;;;;5054234;28;20239;-52
2023/09/22 14:12:56;;;;;;;10.60;4.15;;;;;;;;;;5054493;28;20230;-49
2023/09/22 14:15:23;;;;;;;9.38;4.03;;;;;;;;;;5054520;28;20632;-47
2023/09/22 14:17:51;;;;;;;7.88;3.90;;;;;;;;;;5054187;28;20307;-49
2023/09/22 14:20:21;;;;;;;9.68;4.45;;;;;;;;;;5054419;28;20243;-49
2023/09/22 14:22:50;;;;;;;8.10;4.07;;;;;;;;;;5049477;28;20235;-51
2023/09/22 14:25:18;;;;;;;8.60;4.22;;;;;;;;;;5037739;28;20319;-49
2023/09/22 14:27:46;;;;;;;12.77;5.22;;;;;;;;;;5034199;28;20244;-47
2023/09/22 14:30:13;;;;;;;13.48;4.57;;;;;;;;;;5032450;28;20319;-49
2023/09/22 14:32:41;;;;;;;5.15;3.92;;;;;;;;;;5033783;28;20233;-49
2023/09/22 14:35:09;;;;;;;11.73;4.32;;;;;;;;;;5052470;28;20302;-48
2023/09/22 14:37:37;;;;;;;8.95;4.20;;;;;;;;;;5054000;28;20224;-50
2023/09/22 14:40:05;;;;;;;17.73;4.82;;;;;;;;;;5053356;28;20232;-47
2023/09/22 14:42:34;;;;;;;15.35;4.60;;;;;;;;;;5036653;28;20231;-48
2023/09/22 14:45:02;;;;;;;6.57;3.90;;;;;;;;;;5053849;28;20307;-47
2023/09/22 14:47:29;;;;;;;15.73;4.25;;;;;;;;;;5053664;28;20227;-48
2023/09/22 14:49:57;;;;;;;9.32;4.35;;;;;;;;;;5053612;28;20266;-48